sensor_id;sensor_type;location;lat;lon;timestamp;P1;durP1;ratioP1;P2;durP2;ratioP2
22715;SDS011;11525;51.152;4.456;2022-10-17T00:00:19;14.45;;;12.50;;
22715;SDS011;11525;51.152;4.456;2022-10-17T00:02:45;16.33;;;13.05;;
22715;SDS011;11525;51.152;4.456;2022-10-17T00:05:10;20.00;;;13.27;;
22715;SDS011;11525;51.152;4.456;2022-10-17T00:07:36;15.05;;;12.65;;
22715;SDS011;11525;51.152;4.456;2022-10-17T00:10:03;17.73;;;14.13;;
22715;SDS011;11525;51.152;4.456;2022-10-17T00:12:30;17.40;;;13.35;;
22715;SDS011;11525;51.152;4.456;2022-10-17T00:14:56;15.43;;;13.60;;
22715;SDS011;11525;51.152;4.456;2022-10-17T00:17:21;18.75;;;13.90;;
22715;SDS011;11525;51.152;4.456;2022-10-17T00:19:47;21.33;;;13.98;;
22715;SDS011;11525;51.152;4.456;2022-10-17T00:22:13;15.23;;;13.60;;
22715;SDS011;11525;51.152;4.456;2022-10-17T00:24:38;19.63;;;14.18;;
22715;SDS011;11525;51.152;4.456;2022-10-17T00:27:04;16.50;;;14.48;;
22715;SDS011;11525;51.152;4.456;2022-10-17T00:29:30;18.23;;;14.07;;
22715;SDS011;11525;51.152;4.456;2022-10-17T00:31:55;18.15;;;14.15;;
22715;SDS011;11525;51.152;4.456;2022-10-17T00:34:22;19.50;;;15.05;;
22715;SDS011;11525;51.152;4.456;2022-10-17T00:36:48;24.10;;;15.38;;
22715;SDS011;11525;51.152;4.456;2022-10-17T00:39:14;18.45;;;14.85;;
22715;SDS011;11525;51.152;4.456;2022-10-17T00:41:40;18.55;;;15.10;;
22715;SDS011;11525;51.152;4.456;2022-10-17T00:46:53;20.00;;;14.18;;
22715;SDS011;11525;51.152;4.456;2022-10-17T00:49:19;18.25;;;14.68;;
22715;SDS011;11525;51.152;4.456;2022-10-17T00:51:54;19.52;;;15.05;;
22715;SDS011;11525;51.152;4.456;2022-10-17T00:54:24;16.65;;;14.38;;
22715;SDS011;11525;51.152;4.456;2022-10-17T00:56:55;18.75;;;14.93;;
22715;SDS011;11525;51.152;4.456;2022-10-17T00:59:21;19.55;;;14.65;;
22715;SDS011;11525;51.152;4.456;2022-10-17T01:02:30;19.00;;;14.45;;
22715;SDS011;11525;51.152;4.456;2022-10-17T01:04:39;20.70;;;15.20;;
22715;SDS011;11525;51.152;4.456;2022-10-17T01:07:08;23.05;;;14.82;;
22715;SDS011;11525;51.152;4.456;2022-10-17T01:09:34;17.63;;;14.30;;
22715;SDS011;11525;51.152;4.456;2022-10-17T01:31:15;21.30;;;12.63;;
22715;SDS011;11525;51.152;4.456;2022-10-17T01:33:48;23.42;;;14.75;;
22715;SDS011;11525;51.152;4.456;2022-10-17T01:38:56;23.98;;;14.90;;
22715;SDS011;11525;51.152;4.456;2022-10-17T01:41:31;16.92;;;14.07;;
22715;SDS011;11525;51.152;4.456;2022-10-17T01:44:27;19.60;;;12.68;;
22715;SDS011;11525;51.152;4.456;2022-10-17T01:46:55;23.60;;;14.10;;
22715;SDS011;11525;51.152;4.456;2022-10-17T01:49:35;19.67;;;14.35;;
22715;SDS011;11525;51.152;4.456;2022-10-17T01:52:05;17.75;;;12.27;;
22715;SDS011;11525;51.152;4.456;2022-10-17T01:54:40;22.27;;;12.10;;
22715;SDS011;11525;51.152;4.456;2022-10-17T01:57:17;21.27;;;12.18;;
22715;SDS011;11525;51.152;4.456;2022-10-17T01:59:59;19.45;;;12.68;;
22715;SDS011;11525;51.152;4.456;2022-10-17T02:02:28;22.35;;;12.55;;
22715;SDS011;11525;51.152;4.456;2022-10-17T02:04:56;15.85;;;12.52;;
22715;SDS011;11525;51.152;4.456;2022-10-17T02:07:22;17.08;;;11.75;;
22715;SDS011;11525;51.152;4.456;2022-10-17T02:09:47;18.48;;;12.40;;
22715;SDS011;11525;51.152;4.456;2022-10-17T02:15:13;19.52;;;12.40;;
22715;SDS011;11525;51.152;4.456;2022-10-17T02:20:50;15.15;;;12.15;;
22715;SDS011;11525;51.152;4.456;2022-10-17T02:26:27;20.17;;;11.77;;
22715;SDS011;11525;51.152;4.456;2022-10-17T02:32:00;15.93;;;12.65;;
22715;SDS011;11525;51.152;4.456;2022-10-17T02:34:42;17.52;;;11.30;;
22715;SDS011;11525;51.152;4.456;2022-10-17T02:37:13;16.20;;;12.15;;
22715;SDS011;11525;51.152;4.456;2022-10-17T02:39:41;18.42;;;12.20;;
22715;SDS011;11525;51.152;4.456;2022-10-17T02:42:08;18.92;;;11.90;;
22715;SDS011;11525;51.152;4.456;2022-10-17T02:44:39;16.52;;;12.15;;
22715;SDS011;11525;51.152;4.456;2022-10-17T02:47:15;14.63;;;11.73;;
22715;SDS011;11525;51.152;4.456;2022-10-17T02:49:50;19.25;;;12.20;;
22715;SDS011;11525;51.152;4.456;2022-10-17T02:52:22;22.85;;;13.13;;
22715;SDS011;11525;51.152;4.456;2022-10-17T02:55:00;21.85;;;11.75;;
22715;SDS011;11525;51.152;4.456;2022-10-17T02:57:35;23.63;;;12.07;;
22715;SDS011;11525;51.152;4.456;2022-10-17T03:00:07;18.48;;;12.38;;
22715;SDS011;11525;51.152;4.456;2022-10-17T03:02:39;20.52;;;12.88;;
22715;SDS011;11525;51.152;4.456;2022-10-17T03:05:07;17.60;;;12.45;;
22715;SDS011;11525;51.152;4.456;2022-10-17T03:07:33;18.48;;;11.43;;
22715;SDS011;11525;51.152;4.456;2022-10-17T03:09:59;15.88;;;10.38;;
22715;SDS011;11525;51.152;4.456;2022-10-17T03:12:25;19.13;;;12.02;;
22715;SDS011;11525;51.152;4.456;2022-10-17T03:14:50;18.80;;;12.43;;
22715;SDS011;11525;51.152;4.456;2022-10-17T03:17:16;18.42;;;12.60;;
22715;SDS011;11525;51.152;4.456;2022-10-17T03:19:41;20.08;;;13.50;;
22715;SDS011;11525;51.152;4.456;2022-10-17T03:22:07;18.33;;;12.95;;
22715;SDS011;11525;51.152;4.456;2022-10-17T03:24:33;17.50;;;12.18;;
22715;SDS011;11525;51.152;4.456;2022-10-17T03:26:58;21.40;;;12.35;;
22715;SDS011;11525;51.152;4.456;2022-10-17T03:29:24;18.13;;;12.57;;
22715;SDS011;11525;51.152;4.456;2022-10-17T03:31:50;21.55;;;11.98;;
22715;SDS011;11525;51.152;4.456;2022-10-17T03:34:15;20.27;;;12.35;;
22715;SDS011;11525;51.152;4.456;2022-10-17T03:36:42;18.23;;;12.20;;
22715;SDS011;11525;51.152;4.456;2022-10-17T03:39:08;17.13;;;11.98;;
22715;SDS011;11525;51.152;4.456;2022-10-17T03:41:34;17.17;;;11.85;;
22715;SDS011;11525;51.152;4.456;2022-10-17T03:43:59;14.68;;;11.15;;
22715;SDS011;11525;51.152;4.456;2022-10-17T03:46:25;12.68;;;10.15;;
22715;SDS011;11525;51.152;4.456;2022-10-17T03:48:51;13.98;;;10.38;;
22715;SDS011;11525;51.152;4.456;2022-10-17T03:51:16;15.98;;;10.65;;
22715;SDS011;11525;51.152;4.456;2022-10-17T03:53:42;18.13;;;10.75;;
22715;SDS011;11525;51.152;4.456;2022-10-17T03:56:29;14.07;;;9.90;;
22715;SDS011;11525;51.152;4.456;2022-10-17T03:58:54;13.23;;;10.20;;
22715;SDS011;11525;51.152;4.456;2022-10-17T04:01:20;16.83;;;10.90;;
22715;SDS011;11525;51.152;4.456;2022-10-17T04:03:54;17.42;;;10.52;;
22715;SDS011;11525;51.152;4.456;2022-10-17T04:06:20;19.13;;;10.48;;
22715;SDS011;11525;51.152;4.456;2022-10-17T04:08:46;17.95;;;10.75;;
22715;SDS011;11525;51.152;4.456;2022-10-17T04:11:15;22.38;;;10.45;;
22715;SDS011;11525;51.152;4.456;2022-10-17T04:13:42;17.73;;;9.52;;
22715;SDS011;11525;51.152;4.456;2022-10-17T04:16:15;17.73;;;10.25;;
22715;SDS011;11525;51.152;4.456;2022-10-17T04:18:41;14.63;;;10.15;;
22715;SDS011;11525;51.152;4.456;2022-10-17T04:21:07;20.45;;;10.80;;
22715;SDS011;11525;51.152;4.456;2022-10-17T04:23:34;21.92;;;10.85;;
22715;SDS011;11525;51.152;4.456;2022-10-17T04:26:01;20.83;;;10.27;;
22715;SDS011;11525;51.152;4.456;2022-10-17T04:28:28;13.15;;;10.38;;
22715;SDS011;11525;51.152;4.456;2022-10-17T04:30:56;15.55;;;10.10;;
22715;SDS011;11525;51.152;4.456;2022-10-17T04:33:23;16.27;;;10.05;;
22715;SDS011;11525;51.152;4.456;2022-10-17T04:35:58;13.70;;;9.52;;
22715;SDS011;11525;51.152;4.456;2022-10-17T04:38:29;18.80;;;10.90;;
22715;SDS011;11525;51.152;4.456;2022-10-17T04:40:56;19.00;;;9.77;;
22715;SDS011;11525;51.152;4.456;2022-10-17T04:43:22;20.23;;;10.02;;
22715;SDS011;11525;51.152;4.456;2022-10-17T04:45:48;15.18;;;9.68;;
22715;SDS011;11525;51.152;4.456;2022-10-17T04:48:14;13.55;;;9.55;;
22715;SDS011;11525;51.152;4.456;2022-10-17T04:50:39;19.02;;;9.73;;
22715;SDS011;11525;51.152;4.456;2022-10-17T04:53:05;19.42;;;10.10;;
22715;SDS011;11525;51.152;4.456;2022-10-17T04:55:30;15.60;;;9.30;;
22715;SDS011;11525;51.152;4.456;2022-10-17T04:58:01;12.85;;;9.10;;
22715;SDS011;11525;51.152;4.456;2022-10-17T05:00:27;14.93;;;10.40;;
22715;SDS011;11525;51.152;4.456;2022-10-17T05:02:52;17.45;;;10.40;;
22715;SDS011;11525;51.152;4.456;2022-10-17T05:05:18;14.38;;;9.45;;
22715;SDS011;11525;51.152;4.456;2022-10-17T05:07:44;12.63;;;9.70;;
22715;SDS011;11525;51.152;4.456;2022-10-17T05:10:09;19.77;;;10.23;;
22715;SDS011;11525;51.152;4.456;2022-10-17T05:12:35;12.45;;;10.07;;
22715;SDS011;11525;51.152;4.456;2022-10-17T05:15:01;20.83;;;9.98;;
22715;SDS011;11525;51.152;4.456;2022-10-17T05:17:26;18.38;;;10.20;;
22715;SDS011;11525;51.152;4.456;2022-10-17T05:19:52;21.85;;;10.00;;
22715;SDS011;11525;51.152;4.456;2022-10-17T05:22:18;15.60;;;10.18;;
22715;SDS011;11525;51.152;4.456;2022-10-17T05:24:43;16.67;;;10.25;;
22715;SDS011;11525;51.152;4.456;2022-10-17T05:27:09;16.02;;;10.43;;
22715;SDS011;11525;51.152;4.456;2022-10-17T05:29:35;18.85;;;11.25;;
22715;SDS011;11525;51.152;4.456;2022-10-17T05:32:00;19.90;;;10.80;;
22715;SDS011;11525;51.152;4.456;2022-10-17T05:34:26;20.25;;;11.23;;
22715;SDS011;11525;51.152;4.456;2022-10-17T05:36:52;17.27;;;11.07;;
22715;SDS011;11525;51.152;4.456;2022-10-17T05:39:17;15.25;;;10.45;;
22715;SDS011;11525;51.152;4.456;2022-10-17T05:41:44;19.67;;;10.63;;
22715;SDS011;11525;51.152;4.456;2022-10-17T05:44:10;15.07;;;10.13;;
22715;SDS011;11525;51.152;4.456;2022-10-17T05:46:36;18.20;;;10.25;;
22715;SDS011;11525;51.152;4.456;2022-10-17T05:49:02;13.43;;;9.40;;
22715;SDS011;11525;51.152;4.456;2022-10-17T05:51:27;14.00;;;10.13;;
22715;SDS011;11525;51.152;4.456;2022-10-17T05:53:53;18.42;;;10.40;;
22715;SDS011;11525;51.152;4.456;2022-10-17T05:56:19;15.15;;;10.48;;
22715;SDS011;11525;51.152;4.456;2022-10-17T05:58:44;13.35;;;9.52;;
22715;SDS011;11525;51.152;4.456;2022-10-17T06:01:11;18.77;;;9.80;;
22715;SDS011;11525;51.152;4.456;2022-10-17T06:03:37;13.48;;;9.43;;
22715;SDS011;11525;51.152;4.456;2022-10-17T06:06:07;13.85;;;9.00;;
22715;SDS011;11525;51.152;4.456;2022-10-17T06:08:34;16.42;;;9.82;;
22715;SDS011;11525;51.152;4.456;2022-10-17T06:11:01;15.93;;;9.10;;
22715;SDS011;11525;51.152;4.456;2022-10-17T06:13:26;15.77;;;8.70;;
22715;SDS011;11525;51.152;4.456;2022-10-17T06:15:52;12.73;;;8.27;;
22715;SDS011;11525;51.152;4.456;2022-10-17T06:18:18;15.02;;;9.10;;
22715;SDS011;11525;51.152;4.456;2022-10-17T06:20:43;15.05;;;9.00;;
22715;SDS011;11525;51.152;4.456;2022-10-17T06:23:09;18.77;;;9.25;;
22715;SDS011;11525;51.152;4.456;2022-10-17T06:25:35;14.48;;;9.43;;
22715;SDS011;11525;51.152;4.456;2022-10-17T06:28:00;16.13;;;9.07;;
22715;SDS011;11525;51.152;4.456;2022-10-17T06:30:26;12.27;;;8.85;;
22715;SDS011;11525;51.152;4.456;2022-10-17T06:32:52;12.98;;;8.82;;
22715;SDS011;11525;51.152;4.456;2022-10-17T06:35:18;15.40;;;8.75;;
22715;SDS011;11525;51.152;4.456;2022-10-17T06:37:44;13.80;;;8.98;;
22715;SDS011;11525;51.152;4.456;2022-10-17T06:40:10;13.95;;;8.68;;
22715;SDS011;11525;51.152;4.456;2022-10-17T06:42:37;18.27;;;8.55;;
22715;SDS011;11525;51.152;4.456;2022-10-17T06:45:03;16.63;;;8.35;;
22715;SDS011;11525;51.152;4.456;2022-10-17T06:47:29;16.95;;;8.55;;
22715;SDS011;11525;51.152;4.456;2022-10-17T06:49:55;19.90;;;9.13;;
22715;SDS011;11525;51.152;4.456;2022-10-17T06:52:21;14.88;;;8.57;;
22715;SDS011;11525;51.152;4.456;2022-10-17T06:54:47;18.63;;;8.70;;
22715;SDS011;11525;51.152;4.456;2022-10-17T06:57:12;25.27;;;11.10;;
22715;SDS011;11525;51.152;4.456;2022-10-17T06:59:38;21.25;;;10.40;;
22715;SDS011;11525;51.152;4.456;2022-10-17T07:02:04;16.08;;;8.98;;
22715;SDS011;11525;51.152;4.456;2022-10-17T07:04:30;18.90;;;9.75;;
22715;SDS011;11525;51.152;4.456;2022-10-17T07:06:56;16.83;;;9.15;;
22715;SDS011;11525;51.152;4.456;2022-10-17T07:09:21;13.60;;;8.98;;
22715;SDS011;11525;51.152;4.456;2022-10-17T07:11:48;14.43;;;9.73;;
22715;SDS011;11525;51.152;4.456;2022-10-17T07:14:13;16.50;;;9.38;;
22715;SDS011;11525;51.152;4.456;2022-10-17T07:16:39;17.50;;;9.95;;
22715;SDS011;11525;51.152;4.456;2022-10-17T07:19:05;14.30;;;9.80;;
22715;SDS011;11525;51.152;4.456;2022-10-17T07:21:30;18.48;;;10.40;;
22715;SDS011;11525;51.152;4.456;2022-10-17T07:23:57;17.58;;;10.00;;
22715;SDS011;11525;51.152;4.456;2022-10-17T07:26:22;17.92;;;10.75;;
22715;SDS011;11525;51.152;4.456;2022-10-17T07:28:50;17.10;;;9.38;;
22715;SDS011;11525;51.152;4.456;2022-10-17T07:31:18;14.32;;;9.48;;
22715;SDS011;11525;51.152;4.456;2022-10-17T07:33:44;13.55;;;9.02;;
22715;SDS011;11525;51.152;4.456;2022-10-17T07:36:10;18.27;;;10.43;;
22715;SDS011;11525;51.152;4.456;2022-10-17T07:38:37;19.23;;;9.75;;
22715;SDS011;11525;51.152;4.456;2022-10-17T07:41:04;14.05;;;9.52;;
22715;SDS011;11525;51.152;4.456;2022-10-17T07:43:30;16.45;;;9.82;;
22715;SDS011;11525;51.152;4.456;2022-10-17T07:45:56;17.48;;;10.45;;
22715;SDS011;11525;51.152;4.456;2022-10-17T07:48:23;17.65;;;9.73;;
22715;SDS011;11525;51.152;4.456;2022-10-17T07:50:49;17.85;;;10.75;;
22715;SDS011;11525;51.152;4.456;2022-10-17T07:53:15;10.63;;;9.05;;
22715;SDS011;11525;51.152;4.456;2022-10-17T07:55:41;18.48;;;8.85;;
22715;SDS011;11525;51.152;4.456;2022-10-17T07:58:08;13.13;;;8.10;;
22715;SDS011;11525;51.152;4.456;2022-10-17T08:00:35;15.57;;;9.07;;
22715;SDS011;11525;51.152;4.456;2022-10-17T08:03:01;10.75;;;7.35;;
22715;SDS011;11525;51.152;4.456;2022-10-17T08:05:27;11.20;;;7.47;;
22715;SDS011;11525;51.152;4.456;2022-10-17T08:07:53;10.23;;;7.35;;
22715;SDS011;11525;51.152;4.456;2022-10-17T08:10:19;10.60;;;6.57;;
22715;SDS011;11525;51.152;4.456;2022-10-17T08:12:45;10.32;;;5.63;;
22715;SDS011;11525;51.152;4.456;2022-10-17T08:15:11;10.80;;;6.10;;
22715;SDS011;11525;51.152;4.456;2022-10-17T08:17:37;13.95;;;6.45;;
22715;SDS011;11525;51.152;4.456;2022-10-17T08:20:04;8.30;;;5.97;;
22715;SDS011;11525;51.152;4.456;2022-10-17T08:22:30;9.25;;;6.18;;
22715;SDS011;11525;51.152;4.456;2022-10-17T08:24:56;6.95;;;5.68;;
22715;SDS011;11525;51.152;4.456;2022-10-17T08:27:22;9.25;;;6.18;;
22715;SDS011;11525;51.152;4.456;2022-10-17T08:29:49;9.20;;;6.07;;
22715;SDS011;11525;51.152;4.456;2022-10-17T08:32:22;9.30;;;6.18;;
22715;SDS011;11525;51.152;4.456;2022-10-17T08:34:50;11.43;;;6.50;;
22715;SDS011;11525;51.152;4.456;2022-10-17T08:37:19;9.88;;;5.68;;
22715;SDS011;11525;51.152;4.456;2022-10-17T08:39:46;12.20;;;7.15;;
22715;SDS011;11525;51.152;4.456;2022-10-17T08:47:35;11.60;;;6.35;;
22715;SDS011;11525;51.152;4.456;2022-10-17T08:50:04;13.02;;;7.05;;
22715;SDS011;11525;51.152;4.456;2022-10-17T08:52:38;9.15;;;6.30;;
22715;SDS011;11525;51.152;4.456;2022-10-17T08:55:12;8.32;;;6.03;;
22715;SDS011;11525;51.152;4.456;2022-10-17T08:57:46;12.57;;;6.63;;
22715;SDS011;11525;51.152;4.456;2022-10-17T09:00:17;9.00;;;6.05;;
22715;SDS011;11525;51.152;4.456;2022-10-17T09:02:56;8.27;;;5.93;;
22715;SDS011;11525;51.152;4.456;2022-10-17T09:11:03;6.85;;;6.15;;
22715;SDS011;11525;51.152;4.456;2022-10-17T09:16:13;9.75;;;6.75;;
22715;SDS011;11525;51.152;4.456;2022-10-17T09:19:02;13.20;;;6.25;;
22715;SDS011;11525;51.152;4.456;2022-10-17T09:22:07;8.40;;;5.65;;
22715;SDS011;11525;51.152;4.456;2022-10-17T09:24:39;9.93;;;6.32;;
22715;SDS011;11525;51.152;4.456;2022-10-17T09:27:23;6.93;;;5.53;;
22715;SDS011;11525;51.152;4.456;2022-10-17T09:29:54;7.45;;;5.05;;
22715;SDS011;11525;51.152;4.456;2022-10-17T09:32:38;7.32;;;5.85;;
22715;SDS011;11525;51.152;4.456;2022-10-17T09:35:10;6.25;;;5.35;;
22715;SDS011;11525;51.152;4.456;2022-10-17T09:37:37;6.68;;;6.03;;
22715;SDS011;11525;51.152;4.456;2022-10-17T09:40:05;10.05;;;6.55;;
22715;SDS011;11525;51.152;4.456;2022-10-17T09:42:36;12.38;;;6.47;;
22715;SDS011;11525;51.152;4.456;2022-10-17T09:47:42;11.63;;;6.45;;
22715;SDS011;11525;51.152;4.456;2022-10-17T09:52:47;11.45;;;7.50;;
22715;SDS011;11525;51.152;4.456;2022-10-17T09:57:53;11.55;;;6.90;;
22715;SDS011;11525;51.152;4.456;2022-10-17T10:00:21;16.10;;;6.82;;
22715;SDS011;11525;51.152;4.456;2022-10-17T10:02:49;8.75;;;6.80;;
22715;SDS011;11525;51.152;4.456;2022-10-17T10:05:15;8.50;;;6.80;;
22715;SDS011;11525;51.152;4.456;2022-10-17T10:07:45;12.25;;;7.55;;
22715;SDS011;11525;51.152;4.456;2022-10-17T10:10:27;8.55;;;6.85;;
22715;SDS011;11525;51.152;4.456;2022-10-17T10:13:05;11.88;;;7.28;;
22715;SDS011;11525;51.152;4.456;2022-10-17T10:15:45;11.55;;;7.90;;
22715;SDS011;11525;51.152;4.456;2022-10-17T10:21:14;10.63;;;7.53;;
22715;SDS011;11525;51.152;4.456;2022-10-17T10:23:42;10.88;;;7.80;;
22715;SDS011;11525;51.152;4.456;2022-10-17T10:26:26;12.05;;;7.53;;
22715;SDS011;11525;51.152;4.456;2022-10-17T10:29:01;10.55;;;7.50;;
22715;SDS011;11525;51.152;4.456;2022-10-17T10:31:38;10.02;;;7.55;;
22715;SDS011;11525;51.152;4.456;2022-10-17T10:34:49;11.20;;;7.90;;
22715;SDS011;11525;51.152;4.456;2022-10-17T10:39:31;9.15;;;7.72;;
22715;SDS011;11525;51.152;4.456;2022-10-17T10:42:01;11.18;;;8.05;;
22715;SDS011;11525;51.152;4.456;2022-10-17T10:44:30;10.27;;;7.50;;
22715;SDS011;11525;51.152;4.456;2022-10-17T10:49:50;13.23;;;7.82;;
22715;SDS011;11525;51.152;4.456;2022-10-17T10:52:40;19.38;;;7.93;;
22715;SDS011;11525;51.152;4.456;2022-10-17T10:55:15;12.90;;;8.38;;
22715;SDS011;11525;51.152;4.456;2022-10-17T10:57:48;11.15;;;7.82;;
22715;SDS011;11525;51.152;4.456;2022-10-17T11:00:18;10.13;;;7.82;;
22715;SDS011;11525;51.152;4.456;2022-10-17T11:02:51;12.43;;;8.18;;
22715;SDS011;11525;51.152;4.456;2022-10-17T11:08:12;14.35;;;8.77;;
22715;SDS011;11525;51.152;4.456;2022-10-17T11:13:46;16.50;;;7.68;;
22715;SDS011;11525;51.152;4.456;2022-10-17T11:16:38;9.88;;;7.90;;
22715;SDS011;11525;51.152;4.456;2022-10-17T11:19:19;10.77;;;7.40;;
22715;SDS011;11525;51.152;4.456;2022-10-17T11:24:47;11.05;;;7.40;;
22715;SDS011;11525;51.152;4.456;2022-10-17T11:27:25;11.88;;;6.85;;
22715;SDS011;11525;51.152;4.456;2022-10-17T11:29:53;9.63;;;6.43;;
22715;SDS011;11525;51.152;4.456;2022-10-17T11:32:22;12.90;;;7.18;;
22715;SDS011;11525;51.152;4.456;2022-10-17T11:35:04;7.78;;;6.38;;
22715;SDS011;11525;51.152;4.456;2022-10-17T11:37:45;10.15;;;6.35;;
22715;SDS011;11525;51.152;4.456;2022-10-17T11:40:21;11.07;;;6.07;;
22715;SDS011;11525;51.152;4.456;2022-10-17T11:42:58;7.65;;;5.90;;
22715;SDS011;11525;51.152;4.456;2022-10-17T11:45:35;9.30;;;5.25;;
22715;SDS011;11525;51.152;4.456;2022-10-17T11:48:11;11.52;;;5.18;;
22715;SDS011;11525;51.152;4.456;2022-10-17T11:50:58;8.38;;;5.25;;
22715;SDS011;11525;51.152;4.456;2022-10-17T11:53:32;12.88;;;5.50;;
22715;SDS011;11525;51.152;4.456;2022-10-17T11:56:29;7.05;;;5.03;;
22715;SDS011;11525;51.152;4.456;2022-10-17T12:01:46;7.35;;;4.88;;
22715;SDS011;11525;51.152;4.456;2022-10-17T12:04:21;8.02;;;4.93;;
22715;SDS011;11525;51.152;4.456;2022-10-17T12:09:45;11.00;;;4.65;;
22715;SDS011;11525;51.152;4.456;2022-10-17T12:12:35;10.50;;;4.50;;
22715;SDS011;11525;51.152;4.456;2022-10-17T12:17:54;4.35;;;3.80;;
22715;SDS011;11525;51.152;4.456;2022-10-17T12:22:49;6.88;;;4.45;;
22715;SDS011;11525;51.152;4.456;2022-10-17T12:25:20;6.13;;;4.50;;
22715;SDS011;11525;51.152;4.456;2022-10-17T12:30:31;8.93;;;4.70;;
22715;SDS011;11525;51.152;4.456;2022-10-17T12:35:30;7.38;;;5.75;;
22715;SDS011;11525;51.152;4.456;2022-10-17T12:38:14;7.68;;;6.30;;
22715;SDS011;11525;51.152;4.456;2022-10-17T12:40:49;9.00;;;6.40;;
22715;SDS011;11525;51.152;4.456;2022-10-17T12:56:09;11.23;;;6.75;;
22715;SDS011;11525;51.152;4.456;2022-10-17T12:58:36;10.68;;;6.72;;
22715;SDS011;11525;51.152;4.456;2022-10-17T13:01:08;11.15;;;7.00;;
22715;SDS011;11525;51.152;4.456;2022-10-17T13:03:58;12.15;;;6.60;;
22715;SDS011;11525;51.152;4.456;2022-10-17T13:06:27;10.27;;;7.20;;
22715;SDS011;11525;51.152;4.456;2022-10-17T13:09:01;9.45;;;6.60;;
22715;SDS011;11525;51.152;4.456;2022-10-17T13:11:30;9.13;;;7.28;;
22715;SDS011;11525;51.152;4.456;2022-10-17T13:13:59;8.70;;;6.43;;
22715;SDS011;11525;51.152;4.456;2022-10-17T13:16:31;10.88;;;6.28;;
22715;SDS011;11525;51.152;4.456;2022-10-17T13:22:14;7.68;;;6.38;;
22715;SDS011;11525;51.152;4.456;2022-10-17T13:24:49;11.55;;;6.07;;
22715;SDS011;11525;51.152;4.456;2022-10-17T13:27:32;11.50;;;6.00;;
22715;SDS011;11525;51.152;4.456;2022-10-17T13:30:00;11.05;;;5.82;;
22715;SDS011;11525;51.152;4.456;2022-10-17T13:32:42;8.65;;;6.03;;
22715;SDS011;11525;51.152;4.456;2022-10-17T13:35:10;12.70;;;5.90;;
22715;SDS011;11525;51.152;4.456;2022-10-17T13:37:41;7.05;;;5.22;;
22715;SDS011;11525;51.152;4.456;2022-10-17T13:40:19;9.60;;;5.65;;
22715;SDS011;11525;51.152;4.456;2022-10-17T13:42:51;9.88;;;5.80;;
22715;SDS011;11525;51.152;4.456;2022-10-17T13:45:29;8.05;;;5.88;;
22715;SDS011;11525;51.152;4.456;2022-10-17T13:48:04;8.55;;;5.70;;
22715;SDS011;11525;51.152;4.456;2022-10-17T13:50:40;10.40;;;5.75;;
22715;SDS011;11525;51.152;4.456;2022-10-17T13:53:15;9.88;;;5.78;;
22715;SDS011;11525;51.152;4.456;2022-10-17T13:55:53;6.55;;;5.78;;
22715;SDS011;11525;51.152;4.456;2022-10-17T13:58:31;10.77;;;5.97;;
22715;SDS011;11525;51.152;4.456;2022-10-17T14:01:04;10.90;;;5.28;;
22715;SDS011;11525;51.152;4.456;2022-10-17T14:03:31;8.27;;;6.03;;
22715;SDS011;11525;51.152;4.456;2022-10-17T14:06:10;7.82;;;5.72;;
22715;SDS011;11525;51.152;4.456;2022-10-17T14:08:58;7.30;;;5.57;;
22715;SDS011;11525;51.152;4.456;2022-10-17T14:11:34;8.05;;;5.57;;
22715;SDS011;11525;51.152;4.456;2022-10-17T14:14:02;9.10;;;5.72;;
22715;SDS011;11525;51.152;4.456;2022-10-17T14:16:37;7.03;;;5.70;;
22715;SDS011;11525;51.152;4.456;2022-10-17T14:19:04;12.70;;;5.45;;
22715;SDS011;11525;51.152;4.456;2022-10-17T14:21:37;8.15;;;5.60;;
22715;SDS011;11525;51.152;4.456;2022-10-17T14:24:21;6.38;;;4.88;;
22715;SDS011;11525;51.152;4.456;2022-10-17T14:26:53;8.13;;;5.57;;
22715;SDS011;11525;51.152;4.456;2022-10-17T14:29:30;8.85;;;5.85;;
22715;SDS011;11525;51.152;4.456;2022-10-17T14:32:13;7.80;;;5.55;;
22715;SDS011;11525;51.152;4.456;2022-10-17T14:34:40;6.55;;;5.38;;
22715;SDS011;11525;51.152;4.456;2022-10-17T14:37:09;6.07;;;4.60;;
22715;SDS011;11525;51.152;4.456;2022-10-17T14:39:47;13.18;;;5.57;;
22715;SDS011;11525;51.152;4.456;2022-10-17T14:42:16;8.05;;;5.25;;
22715;SDS011;11525;51.152;4.456;2022-10-17T14:44:49;6.78;;;5.30;;
22715;SDS011;11525;51.152;4.456;2022-10-17T14:47:18;12.40;;;5.70;;
22715;SDS011;11525;51.152;4.456;2022-10-17T14:49:50;12.05;;;5.47;;
22715;SDS011;11525;51.152;4.456;2022-10-17T14:52:28;6.25;;;5.10;;
22715;SDS011;11525;51.152;4.456;2022-10-17T14:54:56;7.43;;;5.38;;
22715;SDS011;11525;51.152;4.456;2022-10-17T14:57:25;6.90;;;4.57;;
22715;SDS011;11525;51.152;4.456;2022-10-17T15:00:13;9.07;;;5.47;;
22715;SDS011;11525;51.152;4.456;2022-10-17T15:02:40;8.05;;;5.20;;
22715;SDS011;11525;51.152;4.456;2022-10-17T15:05:06;10.90;;;5.80;;
22715;SDS011;11525;51.152;4.456;2022-10-17T15:07:32;11.50;;;5.95;;
22715;SDS011;11525;51.152;4.456;2022-10-17T15:09:57;8.18;;;5.20;;
22715;SDS011;11525;51.152;4.456;2022-10-17T15:12:24;9.45;;;5.57;;
22715;SDS011;11525;51.152;4.456;2022-10-17T15:14:49;13.70;;;6.15;;
22715;SDS011;11525;51.152;4.456;2022-10-17T15:17:20;11.65;;;6.28;;
22715;SDS011;11525;51.152;4.456;2022-10-17T15:19:51;9.63;;;5.18;;
22715;SDS011;11525;51.152;4.456;2022-10-17T15:22:16;10.07;;;5.32;;
22715;SDS011;11525;51.152;4.456;2022-10-17T15:24:42;6.47;;;5.10;;
22715;SDS011;11525;51.152;4.456;2022-10-17T15:27:21;9.23;;;4.93;;
22715;SDS011;11525;51.152;4.456;2022-10-17T15:29:50;12.00;;;6.07;;
22715;SDS011;11525;51.152;4.456;2022-10-17T15:32:16;9.48;;;5.70;;
22715;SDS011;11525;51.152;4.456;2022-10-17T15:34:42;6.75;;;5.15;;
22715;SDS011;11525;51.152;4.456;2022-10-17T15:37:19;10.50;;;6.00;;
22715;SDS011;11525;51.152;4.456;2022-10-17T15:39:47;7.35;;;5.70;;
22715;SDS011;11525;51.152;4.456;2022-10-17T15:42:18;9.10;;;5.30;;
22715;SDS011;11525;51.152;4.456;2022-10-17T15:44:52;8.30;;;5.70;;
22715;SDS011;11525;51.152;4.456;2022-10-17T15:49:48;8.88;;;5.15;;
22715;SDS011;11525;51.152;4.456;2022-10-17T15:52:14;10.20;;;5.97;;
22715;SDS011;11525;51.152;4.456;2022-10-17T15:54:40;10.77;;;5.68;;
22715;SDS011;11525;51.152;4.456;2022-10-17T15:57:07;9.85;;;5.93;;
22715;SDS011;11525;51.152;4.456;2022-10-17T15:59:40;7.80;;;4.97;;
22715;SDS011;11525;51.152;4.456;2022-10-17T16:02:10;6.63;;;5.63;;
22715;SDS011;11525;51.152;4.456;2022-10-17T16:04:38;9.23;;;4.80;;
22715;SDS011;11525;51.152;4.456;2022-10-17T16:07:04;9.68;;;5.50;;
22715;SDS011;11525;51.152;4.456;2022-10-17T16:09:29;10.35;;;6.00;;
22715;SDS011;11525;51.152;4.456;2022-10-17T16:11:55;9.20;;;6.03;;
22715;SDS011;11525;51.152;4.456;2022-10-17T16:14:21;10.75;;;6.15;;
22715;SDS011;11525;51.152;4.456;2022-10-17T16:16:46;6.90;;;5.20;;
22715;SDS011;11525;51.152;4.456;2022-10-17T16:19:12;10.38;;;5.85;;
22715;SDS011;11525;51.152;4.456;2022-10-17T16:21:38;7.57;;;5.85;;
22715;SDS011;11525;51.152;4.456;2022-10-17T16:24:05;6.43;;;5.75;;
22715;SDS011;11525;51.152;4.456;2022-10-17T16:26:31;7.78;;;5.90;;
22715;SDS011;11525;51.152;4.456;2022-10-17T16:28:57;6.28;;;5.68;;
22715;SDS011;11525;51.152;4.456;2022-10-17T16:31:27;7.45;;;5.80;;
22715;SDS011;11525;51.152;4.456;2022-10-17T16:33:56;8.88;;;7.22;;
22715;SDS011;11525;51.152;4.456;2022-10-17T16:36:22;10.93;;;6.40;;
22715;SDS011;11525;51.152;4.456;2022-10-17T16:38:48;10.45;;;7.30;;